Time;durP1;ratioP1;P1;durP2;ratioP2;P2;SDS_P1;SDS_P2;PMS_P1;PMS_P2;Temp;Humidity;BMP_temperature;BMP_pressure;BME280_temperature;BME280_humidity;BME280_pressure;Samples;Min_cycle;Max_cycle;Signal;HPM_P1;HPM_P2
2022/08/24 00:01:05;;;;;;;17.70;10.80;;;;;;;19.15;79.79;101612.06;5071623;28;20045;-65
2022/08/24 00:03:31;;;;;;;11.57;8.93;;;;;;;19.12;78.48;101620.66;5071367;28;20053;-64
2022/08/24 00:05:56;;;;;;;13.30;8.98;;;;;;;19.06;78.78;101616.56;5071247;28;20127;-64
2022/08/24 00:08:22;;;;;;;10.10;8.18;;;;;;;19.03;78.07;101604.97;5068334;28;20097;-65
2022/08/24 00:10:47;;;;;;;13.18;10.02;;;;;;;18.93;79.50;101609.59;5083080;28;20043;-64
2022/08/24 00:13:13;;;;;;;12.43;8.60;;;;;;;18.90;79.45;101605.28;5064828;28;20068;-65
2022/08/24 00:15:39;;;;;;;13.52;9.07;;;;;;;18.87;79.19;101611.06;5067018;28;20032;-65
2022/08/24 00:18:05;;;;;;;11.35;8.23;;;;;;;18.83;78.23;101618.75;5068138;28;20032;-65
2022/08/24 00:20:31;;;;;;;10.13;8.00;;;;;;;18.82;77.74;101625.28;5073255;28;20115;-64
2022/08/24 00:22:56;;;;;;;15.73;11.20;;;;;;;18.80;79.89;101627.34;5065456;28;20494;-64
2022/08/24 00:25:22;;;;;;;21.40;16.85;;;;;;;18.74;82.43;101625.16;5085433;28;20040;-64
2022/08/24 00:27:48;;;;;;;18.35;13.57;;;;;;;18.76;79.91;101628.66;5075524;28;20432;-65
2022/08/24 00:30:17;;;;;;;15.93;11.05;;;;;;;18.77;79.75;101629.50;5066533;28;20032;-65
2022/08/24 00:32:44;;;;;;;14.60;10.02;;;;;;;18.80;79.26;101635.63;5047709;28;20051;-64
2022/08/24 00:35:11;;;;;;;16.00;11.20;;;;;;;18.78;79.26;101632.13;5055233;28;20025;-65
2022/08/24 00:37:38;;;;;;;15.98;12.07;;;;;;;18.73;79.68;101631.69;5047609;28;20484;-63
2022/08/24 00:40:07;;;;;;;13.93;10.55;;;;;;;18.68;79.92;101628.47;5066165;28;20024;-64
2022/08/24 00:42:32;;;;;;;15.85;10.38;;;;;;;18.64;80.14;101627.00;5072507;28;20044;-65
2022/08/24 00:44:58;;;;;;;18.17;10.77;;;;;;;18.60;79.30;101634.72;5065770;28;20032;-64
2022/08/24 00:47:32;;;;;;;15.50;10.80;;;;;;;18.61;79.43;101632.81;5066631;28;20033;-66
2022/08/24 00:50:01;;;;;;;24.38;15.13;;;;;;;18.63;80.23;101630.78;5067700;28;20048;-64
2022/08/24 00:52:38;;;;;;;19.83;15.50;;;;;;;18.61;79.68;101641.09;5072033;28;20849;-65
2022/08/24 00:55:11;;;;;;;18.75;14.45;;;;;;;18.54;79.99;101632.50;5067861;28;20111;-64
2022/08/24 00:57:40;;;;;;;19.27;14.05;;;;;;;18.51;80.98;101635.56;5064481;28;20499;-65
2022/08/24 01:00:22;;;;;;;16.27;13.20;;;;;;;18.50;78.76;101635.69;5066616;28;20304;-64
2022/08/24 01:02:53;;;;;;;20.33;15.18;;;;;;;18.44;79.67;101634.41;5071451;28;20419;-64
2022/08/24 01:05:18;;;;;;;24.40;18.42;;;;;;;18.40;81.78;101634.81;5087902;28;20093;-67
2022/08/24 01:07:47;;;;;;;19.83;16.90;;;;;;;18.34;82.45;101639.03;5073838;28;20028;-64
2022/08/24 01:10:26;;;;;;;21.02;17.23;;;;;;;18.36;81.18;101635.09;5065674;28;20032;-64
2022/08/24 01:13:00;;;;;;;18.67;14.32;;;;;;;18.37;80.01;101622.19;5064801;28;20034;-64
2022/08/24 01:15:26;;;;;;;19.95;14.43;;;;;;;18.38;79.81;101621.19;5066175;28;20029;-65
2022/08/24 01:20:36;;;;;;;21.00;14.23;;;;;;;18.33;79.22;101627.13;5047162;28;20037;-65
2022/08/24 01:23:26;;;;;;;18.65;14.18;;;;;;;18.30;79.14;101635.69;5053333;28;20021;-64
2022/08/24 01:25:52;;;;;;;23.25;16.88;;;;;;;18.29;80.48;101638.59;5045526;28;20033;-66
2022/08/24 01:28:19;;;;;;;24.45;17.73;;;;;;;18.27;80.41;101632.31;5045965;28;20075;-65
2022/08/24 01:30:44;;;;;;;21.65;17.27;;;;;;;18.25;80.49;101637.13;5046141;28;20063;-64
2022/08/24 01:33:22;;;;;;;24.88;17.85;;;;;;;18.24;79.93;101640.91;5045315;28;20029;-64
2022/08/24 01:35:48;;;;;;;20.02;16.08;;;;;;;18.21;79.97;101631.00;5047573;28;20060;-64
2022/08/24 01:38:14;;;;;;;24.02;18.10;;;;;;;18.17;81.33;101634.19;5053208;28;20468;-65
2022/08/24 01:40:49;;;;;;;22.40;15.70;;;;;;;18.10;81.06;101628.38;5064095;28;20046;-65
2022/08/24 01:43:16;;;;;;;19.58;15.32;;;;;;;18.07;80.89;101624.03;5062116;28;20477;-65
2022/08/24 01:45:41;;;;;;;19.83;15.27;;;;;;;18.05;80.83;101619.69;5065248;28;20021;-65
2022/08/24 01:48:08;;;;;;;19.25;15.10;;;;;;;18.03;80.06;101619.81;5066417;28;20036;-65
2022/08/24 01:50:33;;;;;;;22.02;17.02;;;;;;;17.99;80.72;101620.22;5063820;28;20330;-64
2022/08/24 01:53:03;;;;;;;19.52;15.75;;;;;;;17.95;80.43;101622.41;5063298;28;20035;-64
2022/08/24 01:55:29;;;;;;;21.20;14.20;;;;;;;17.94;79.83;101626.16;5064770;28;20043;-64
2022/08/24 01:57:56;;;;;;;23.02;16.23;;;;;;;17.91;80.06;101628.34;5062082;28;20017;-65
2022/08/24 02:00:21;;;;;;;22.15;15.55;;;;;;;17.88;80.63;101623.97;5047165;28;20475;-64
2022/08/24 02:02:49;;;;;;;21.55;15.07;;;;;;;17.81;80.36;101611.75;5068725;28;20079;-65
2022/08/24 02:05:15;;;;;;;19.23;15.18;;;;;;;17.83;79.60;101624.38;5081267;28;20060;-64
2022/08/24 02:07:43;;;;;;;18.00;14.00;;;;;;;17.80;79.62;101624.66;5062903;28;20096;-65
2022/08/24 02:10:13;;;;;;;22.35;16.48;;;;;;;17.77;80.50;101618.56;5080129;28;20035;-65
2022/08/24 02:12:41;;;;;;;22.98;15.32;;;;;;;17.75;80.55;101624.19;5079470;28;20028;-66
2022/08/24 02:15:09;;;;;;;21.52;14.35;;;;;;;17.75;79.39;101626.94;5047294;28;20047;-65
2022/08/24 02:17:36;;;;;;;23.52;15.57;;;;;;;17.73;79.84;101625.34;5064350;28;20139;-64
2022/08/24 02:20:03;;;;;;;19.02;15.20;;;;;;;17.69;80.10;101621.97;5064714;28;20055;-64
2022/08/24 02:22:29;;;;;;;25.73;15.57;;;;;;;17.70;80.00;101628.34;5071054;28;20439;-65
2022/08/24 02:24:54;;;;;;;23.00;15.90;;;;;;;17.67;80.42;101631.38;5065836;28;20032;-65
2022/08/24 02:27:19;;;;;;;20.75;15.10;;;;;;;17.65;80.65;101634.28;5062038;28;20492;-64
2022/08/24 02:29:45;;;;;;;19.10;14.65;;;;;;;17.62;80.17;101641.91;5064271;28;20068;-65
2022/08/24 02:32:11;;;;;;;27.98;16.13;;;;;;;17.58;80.45;101644.09;5064484;28;20016;-65
2022/08/24 02:34:38;;;;;;;24.35;16.05;;;;;;;17.53;80.78;101641.75;5063140;28;20036;-64
2022/08/24 02:37:04;;;;;;;21.60;14.98;;;;;;;17.54;80.57;101650.88;5063558;28;20060;-68
2022/08/24 02:39:30;;;;;;;24.05;15.48;;;;;;;17.55;80.39;101653.47;5045646;28;20171;-65
2022/08/24 02:41:58;;;;;;;25.25;15.50;;;;;;;17.55;80.27;101649.88;5044021;28;20102;-64
2022/08/24 02:44:23;;;;;;;23.50;17.45;;;;;;;17.49;81.83;101645.78;5045280;28;20029;-65
2022/08/24 02:46:49;;;;;;;24.05;17.08;;;;;;;17.49;81.68;101644.91;5045537;28;20041;-67
2022/08/24 02:49:15;;;;;;;22.85;16.83;;;;;;;17.47;81.14;101642.28;5044571;28;20417;-65
2022/08/24 02:51:44;;;;;;;26.58;17.83;;;;;;;17.44;81.82;101641.66;5061819;28;20053;-65
2022/08/24 02:54:10;;;;;;;24.10;18.15;;;;;;;17.39;82.03;101644.84;5059292;28;20033;-65
2022/08/24 02:56:35;;;;;;;23.73;17.58;;;;;;;17.39;82.08;101643.97;5046842;28;20541;-65
2022/08/24 02:59:01;;;;;;;24.70;17.77;;;;;;;17.34;81.75;101644.38;5061362;28;20052;-65
2022/08/24 03:01:28;;;;;;;25.63;20.00;;;;;;;17.31;82.59;101648.28;5063324;28;20028;-64
2022/08/24 03:03:55;;;;;;;26.55;19.20;;;;;;;17.29;81.36;101646.66;5063583;28;20507;-65
2022/08/24 03:06:21;;;;;;;21.42;14.95;;;;;;;17.28;81.02;101640.28;5047035;28;20039;-68
2022/08/24 03:08:46;;;;;;;23.27;15.70;;;;;;;17.26;80.91;101645.06;5049762;28;20422;-65
2022/08/24 03:11:13;;;;;;;24.38;15.73;;;;;;;17.24;80.82;101641.56;5083981;28;20522;-65
2022/08/24 03:13:39;;;;;;;26.17;15.52;;;;;;;17.23;80.23;101645.31;5069047;28;20685;-64
2022/08/24 03:16:06;;;;;;;23.25;16.40;;;;;;;17.21;81.64;101638.22;5070385;28;20115;-66
2022/08/24 03:18:33;;;;;;;19.23;14.93;;;;;;;17.17;81.06;101634.88;5075000;28;20044;-65
2022/08/24 03:21:00;;;;;;;21.27;15.85;;;;;;;17.15;81.98;101630.50;5059311;28;20036;-65
2022/08/24 03:23:26;;;;;;;24.52;16.27;;;;;;;17.11;81.21;101638.13;5059058;28;20488;-66
2022/08/24 03:25:52;;;;;;;20.67;15.05;;;;;;;17.09;80.88;101635.53;5043704;28;20037;-65
2022/08/24 03:28:19;;;;;;;19.60;14.95;;;;;;;17.06;80.79;101627.53;5053762;28;20039;-68
2022/08/24 03:30:45;;;;;;;23.60;15.63;;;;;;;17.04;80.75;101632.31;5064213;28;20033;-64
2022/08/24 03:33:11;;;;;;;22.73;15.30;;;;;;;17.04;81.06;101634.19;5062337;28;20086;-65
2022/08/24 03:35:37;;;;;;;32.47;19.27;;;;;;;17.04;81.88;101637.81;5063851;28;20067;-64
2022/08/24 03:38:03;;;;;;;25.80;18.52;;;;;;;17.03;82.08;101635.22;5061831;28;20032;-65
2022/08/24 03:40:32;;;;;;;24.27;17.58;;;;;;;16.99;81.60;101630.97;5063613;28;20048;-65
2022/08/24 03:42:58;;;;;;;20.02;15.68;;;;;;;16.98;81.38;101624.63;5061435;28;20123;-65
2022/08/24 03:45:25;;;;;;;23.40;16.05;;;;;;;16.97;81.20;101630.22;5055416;28;20539;-65
2022/08/24 03:47:52;;;;;;;26.20;16.73;;;;;;;16.95;80.97;101629.50;5074646;28;20277;-64
2022/08/24 03:50:19;;;;;;;24.42;16.33;;;;;;;16.93;81.14;101632.41;5047920;28;20071;-68
2022/08/24 03:52:45;;;;;;;23.08;16.45;;;;;;;16.91;81.03;101626.13;5056932;28;20028;-65
2022/08/24 03:55:12;;;;;;;22.92;16.45;;;;;;;16.88;80.82;101637.41;5067282;28;20032;-65
2022/08/24 03:57:37;;;;;;;22.35;15.50;;;;;;;16.86;81.30;101641.28;5064315;28;20961;-65
2022/08/24 04:00:05;;;;;;;28.23;18.52;;;;;;;16.85;82.01;101634.06;5067411;28;20097;-66
2022/08/24 04:02:40;;;;;;;29.20;18.65;;;;;;;16.83;81.80;101643.31;5068238;28;20415;-65
2022/08/24 04:05:07;;;;;;;22.80;17.38;;;;;;;16.85;82.12;101643.16;5066287;28;20036;-66
2022/08/24 04:07:32;;;;;;;26.60;19.70;;;;;;;16.86;82.41;101638.53;5064799;28;20044;-64
2022/08/24 04:09:59;;;;;;;32.00;18.95;;;;;;;16.80;82.39;101643.56;5082131;28;20046;-65
2022/08/24 04:12:25;;;;;;;27.27;17.80;;;;;;;16.75;82.49;101642.22;5073761;28;20054;-65
2022/08/24 04:14:51;;;;;;;27.30;19.27;;;;;;;16.72;82.32;101643.34;5070633;28;20506;-68
2022/08/24 04:17:17;;;;;;;28.58;19.33;;;;;;;16.71;82.21;101644.31;5087664;28;20531;-65
2022/08/24 04:19:56;;;;;;;25.80;18.42;;;;;;;16.71;82.28;101641.56;5081820;28;20023;-67
2022/08/24 04:22:30;;;;;;;27.92;19.13;;;;;;;16.68;82.33;101647.31;5064977;28;20036;-65
2022/08/24 04:24:56;;;;;;;27.75;18.73;;;;;;;16.68;82.37;101651.94;5066690;28;20510;-65
2022/08/24 04:27:22;;;;;;;27.30;17.80;;;;;;;16.64;82.49;101651.34;5065363;28;20119;-65
2022/08/24 04:29:48;;;;;;;24.40;18.08;;;;;;;16.63;83.39;101645.97;5066562;28;20043;-65
2022/08/24 04:32:14;;;;;;;31.27;19.10;;;;;;;16.55;83.98;101644.78;5067095;28;20036;-64
2022/08/24 04:34:42;;;;;;;23.90;17.80;;;;;;;16.56;83.10;101648.38;5066655;28;20075;-64
2022/08/24 04:37:08;;;;;;;25.08;16.48;;;;;;;16.55;81.70;101644.78;5064931;28;20043;-65
2022/08/24 04:39:34;;;;;;;28.92;17.55;;;;;;;16.55;82.25;101649.38;5065109;28;20033;-64
2022/08/24 04:41:59;;;;;;;24.13;16.90;;;;;;;16.54;82.11;101645.75;5067876;28;20043;-64
2022/08/24 04:44:26;;;;;;;22.95;15.77;;;;;;;16.54;82.07;101647.63;5065632;28;20029;-65
2022/08/24 04:46:51;;;;;;;21.70;16.23;;;;;;;16.54;82.32;101645.75;5086527;28;20036;-66
2022/08/24 04:49:18;;;;;;;24.55;15.13;;;;;;;16.55;81.72;101652.13;5088811;28;20029;-65
2022/08/24 04:51:43;;;;;;;21.77;15.35;;;;;;;16.54;81.74;101653.13;5071530;28;20032;-65
2022/08/24 04:54:09;;;;;;;19.23;14.40;;;;;;;16.53;81.61;101657.75;5065507;28;20036;-64
2022/08/24 04:56:35;;;;;;;21.45;14.63;;;;;;;16.51;81.82;101653.41;5066071;28;20123;-64
2022/08/24 04:59:01;;;;;;;24.35;15.27;;;;;;;16.51;82.84;101657.03;5063537;28;20369;-65
2022/08/24 05:01:29;;;;;;;24.65;15.73;;;;;;;16.50;82.72;101658.00;5064270;28;20043;-65
2022/08/24 05:03:55;;;;;;;21.23;14.85;;;;;;;16.51;82.69;101662.50;5061743;28;20140;-65
2022/08/24 05:06:23;;;;;;;22.67;15.80;;;;;;;16.51;82.49;101662.50;5062247;28;20741;-67
2022/08/24 05:08:49;;;;;;;23.15;15.32;;;;;;;16.51;83.32;101662.50;5064013;28;20035;-65
2022/08/24 05:11:16;;;;;;;28.60;16.98;;;;;;;16.48;83.01;101662.75;5066334;28;20029;-64
2022/08/24 05:13:43;;;;;;;25.17;15.50;;;;;;;16.49;83.69;101663.63;5061720;28;20747;-64
2022/08/24 05:16:12;;;;;;;29.50;16.67;;;;;;;16.49;83.59;101664.50;5064151;28;20119;-65
2022/08/24 05:18:39;;;;;;;26.60;16.95;;;;;;;16.49;83.87;101663.63;5065303;28;20040;-65
2022/08/24 05:21:10;;;;;;;30.92;18.40;;;;;;;16.51;83.58;101667.13;5064210;28;20032;-64
2022/08/24 05:23:37;;;;;;;39.67;21.50;;;;;;;16.51;83.96;101665.25;5062876;28;20059;-65
2022/08/24 05:26:09;;;;;;;42.78;22.95;;;;;;;16.53;84.14;101656.88;5061224;28;20024;-64
2022/08/24 05:28:35;;;;;;;38.35;21.75;;;;;;;16.55;84.40;101672.25;5053142;28;20046;-65
2022/08/24 05:31:23;;;;;;;37.60;21.63;;;;;;;16.59;83.49;101679.19;5065510;28;20035;-66
2022/08/24 05:33:49;;;;;;;37.78;21.58;;;;;;;16.61;83.68;101673.59;5065042;28;20132;-69
2022/08/24 05:36:18;;;;;;;32.10;21.27;;;;;;;16.65;83.45;101674.22;5063566;28;20044;-65
2022/08/24 05:38:44;;;;;;;31.67;20.02;;;;;;;16.66;83.50;101673.19;5055363;28;20032;-65
2022/08/24 05:41:10;;;;;;;29.23;18.55;;;;;;;16.73;83.48;101683.56;5080351;28;20032;-65
2022/08/24 05:43:36;;;;;;;30.98;17.80;;;;;;;16.76;83.42;101680.56;5070773;28;20051;-68
2022/08/24 05:46:02;;;;;;;30.38;17.17;;;;;;;16.79;82.99;101685.81;5066582;28;20032;-65
2022/08/24 05:48:27;;;;;;;30.52;19.10;;;;;;;16.81;82.99;101678.28;5063849;28;20064;-65
2022/08/24 05:51:06;;;;;;;28.92;18.67;;;;;;;16.89;83.16;101674.91;5065165;28;20590;-65
2022/08/24 05:53:35;;;;;;;27.65;18.88;;;;;;;16.93;83.75;101684.63;5063054;28;20032;-65
2022/08/24 05:56:06;;;;;;;27.23;18.58;;;;;;;16.97;83.02;101682.47;5066402;28;20492;-65
2022/08/24 05:58:33;;;;;;;30.33;19.95;;;;;;;17.00;83.21;101682.19;5062494;28;20028;-65
2022/08/24 06:01:10;;;;;;;31.55;21.48;;;;;;;17.04;83.42;101691.94;5065015;28;20032;-64
2022/08/24 06:03:38;;;;;;;32.38;21.40;;;;;;;17.08;83.52;101686.03;5064667;28;20106;-65
2022/08/24 06:06:07;;;;;;;33.25;21.52;;;;;;;17.14;83.80;101687.38;5048252;28;20032;-65
2022/08/24 06:08:37;;;;;;;33.92;22.42;;;;;;;17.19;84.68;101686.97;5062285;28;20029;-65
2022/08/24 06:11:04;;;;;;;31.67;23.67;;;;;;;17.21;84.56;101691.34;5064250;28;20446;-65
2022/08/24 06:13:32;;;;;;;44.97;30.50;;;;;;;17.28;86.37;101686.19;5062146;28;20165;-67
2022/08/24 06:16:07;;;;;;;44.85;30.85;;;;;;;17.36;85.09;101693.78;5064562;28;20056;-65
2022/08/24 06:18:34;;;;;;;38.97;28.52;;;;;;;17.44;85.65;101702.19;5064330;28;20051;-64
2022/08/24 06:21:11;;;;;;;38.20;27.45;;;;;;;17.53;85.12;101699.53;5063377;28;20510;-65
2022/08/24 06:23:37;;;;;;;40.17;27.48;;;;;;;17.63;86.29;101704.22;5063835;28;20457;-64
2022/08/24 06:28:48;;;;;;;76.65;50.88;;;;;;;17.82;91.51;101705.22;5063045;28;20032;-65
2022/08/24 06:31:14;;;;;;;45.38;32.72;;;;;;;17.87;87.79;101712.22;5065000;28;20403;-65
2022/08/24 06:33:39;;;;;;;62.72;43.97;;;;;;;17.95;90.56;101710.53;5064428;28;20608;-65
2022/08/24 06:36:05;;;;;;;76.75;52.65;;;;;;;18.05;92.79;101708.66;5063113;28;20029;-65
2022/08/24 06:38:31;;;;;;;66.95;46.70;;;;;;;18.14;92.58;101706.06;5063607;28;20119;-65
2022/08/24 06:40:57;;;;;;;88.10;54.95;;;;;;;18.24;94.15;101710.63;5064301;28;20490;-64
2022/08/24 06:43:28;;;;;;;77.25;53.13;;;;;;;18.33;94.24;101712.53;5062223;28;20029;-66
2022/08/24 06:45:59;;;;;;;89.38;56.35;;;;;;;18.46;95.56;101717.78;5061138;28;20769;-65
2022/08/24 06:48:32;;;;;;;86.22;56.17;;;;;;;18.56;95.44;101718.69;5044047;28;20120;-67
2022/08/24 06:50:58;;;;;;;83.00;55.75;;;;;;;18.68;95.52;101718.56;5043966;28;20036;-67
2022/08/24 06:53:24;;;;;;;81.38;54.13;;;;;;;18.76;95.86;101714.13;5055070;28;20052;-66
2022/08/24 06:55:57;;;;;;;78.18;52.17;;;;;;;18.84;95.59;101717.03;5044315;28;20433;-66
2022/08/24 06:58:26;;;;;;;80.28;53.45;;;;;;;18.95;95.31;101723.41;5062271;28;20165;-65
2022/08/24 07:00:51;;;;;;;75.47;50.83;;;;;;;19.06;94.52;101726.88;5077503;28;20041;-65
2022/08/24 07:03:18;;;;;;;73.43;49.72;;;;;;;19.14;94.38;101730.81;5063351;28;20088;-65
2022/08/24 07:05:56;;;;;;;70.38;50.25;;;;;;;19.21;94.00;101727.34;5063838;28;20488;-68
2022/08/24 07:08:38;;;;;;;69.78;50.03;;;;;;;19.34;94.02;101727.03;5049572;28;20511;-65
2022/08/24 07:11:04;;;;;;;72.85;49.60;;;;;;;19.41;93.65;101730.09;5060487;28;20041;-68
2022/08/24 07:13:31;;;;;;;63.03;46.42;;;;;;;19.50;93.13;101731.97;5052538;28;20645;-68
2022/08/24 07:15:57;;;;;;;61.63;45.00;;;;;;;19.59;92.44;101731.09;5062926;28;20089;-65
2022/08/24 07:18:23;;;;;;;69.38;47.38;;;;;;;19.66;93.07;101723.97;5072276;28;20024;-65
2022/08/24 07:20:49;;;;;;;64.40;46.75;;;;;;;19.77;92.02;101732.09;5086077;28;20059;-69
2022/08/24 07:23:18;;;;;;;65.15;45.78;;;;;;;19.86;92.20;101736.72;5064529;28;20075;-65
2022/08/24 07:25:45;;;;;;;64.95;44.97;;;;;;;19.96;91.58;101739.44;5048325;28;20120;-65
2022/08/24 07:28:11;;;;;;;64.55;45.05;;;;;;;20.02;90.73;101736.06;5054301;28;20031;-65
2022/08/24 07:30:39;;;;;;;59.35;42.50;;;;;;;20.13;89.94;101735.00;5034097;28;20040;-65
2022/08/24 07:33:05;;;;;;;54.45;41.20;;;;;;;20.25;88.50;101738.47;5067782;28;20102;-66
2022/08/24 07:35:31;;;;;;;61.95;40.72;;;;;;;20.34;86.93;101732.88;5067626;28;20476;-68
2022/08/24 07:37:57;;;;;;;55.80;40.53;;;;;;;20.46;86.44;101732.66;5047122;28;20444;-65
2022/08/24 07:40:24;;;;;;;49.72;39.03;;;;;;;20.61;85.99;101731.16;5048257;28;20064;-65
2022/08/24 07:42:52;;;;;;;50.40;38.70;;;;;;;20.71;85.83;101729.22;5079478;28;20029;-65
2022/08/24 07:45:18;;;;;;;54.13;39.08;;;;;;;20.80;85.04;101731.03;5068887;28;20036;-65
2022/08/24 07:47:48;;;;;;;50.05;38.88;;;;;;;20.92;84.66;101734.44;5067810;28;20042;-65
2022/08/24 07:50:25;;;;;;;51.97;38.30;;;;;;;21.04;84.09;101735.09;5061187;28;20480;-65
2022/08/24 07:52:50;;;;;;;54.40;39.10;;;;;;;21.13;84.53;101728.63;5064976;28;20032;-65
2022/08/24 07:55:16;;;;;;;51.08;37.70;;;;;;;21.31;84.14;101732.28;5067760;28;20079;-65
2022/08/24 07:57:43;;;;;;;54.42;39.92;;;;;;;21.51;83.00;101734.84;5065544;28;20032;-65
2022/08/24 08:00:12;;;;;;;53.13;39.53;;;;;;;21.64;80.60;101736.16;5067396;28;20078;-65
2022/08/24 08:02:41;;;;;;;55.97;39.80;;;;;;;21.77;80.17;101727.41;5085685;28;20048;-65
2022/08/24 08:05:08;;;;;;;54.55;39.22;;;;;;;21.85;80.48;101730.25;5063793;28;20037;-65
2022/08/24 08:07:37;;;;;;;48.35;38.40;;;;;;;21.92;80.06;101733.25;5050192;28;20114;-65
2022/08/24 08:10:03;;;;;;;45.47;38.33;;;;;;;22.00;79.68;101743.50;5068228;28;20472;-68
2022/08/24 08:12:30;;;;;;;52.92;38.92;;;;;;;22.19;80.65;101745.19;5065565;28;20086;-65
2022/08/24 08:14:56;;;;;;;49.97;37.13;;;;;;;22.68;78.74;101740.72;5065188;28;20116;-65
2022/08/24 08:17:22;;;;;;;39.45;31.13;;;;;;;23.20;74.36;101734.97;5066732;28;20044;-65
2022/08/24 08:19:47;;;;;;;35.17;28.17;;;;;;;23.93;71.45;101740.53;5067529;28;20037;-64
2022/08/24 08:25:17;;;;;;;30.23;23.73;;;;;;;25.22;63.99;101736.47;5048859;28;20047;-65
2022/08/24 08:27:43;;;;;;;20.27;16.25;;;;;;;25.63;62.23;101744.50;5052819;28;20033;-65
2022/08/24 08:30:08;;;;;;;21.95;16.27;;;;;;;26.01;60.04;101741.72;5065896;28;20029;-65
2022/08/24 08:32:35;;;;;;;24.27;16.50;;;;;;;26.30;59.32;101744.53;5065855;28;20946;-65
2022/08/24 08:35:00;;;;;;;28.35;18.10;;;;;;;26.64;58.30;101740.28;5066531;28;20029;-65
2022/08/24 08:37:26;;;;;;;24.17;16.27;;;;;;;27.03;56.81;101730.66;5064017;28;21020;-68
2022/08/24 08:39:51;;;;;;;22.38;16.77;;;;;;;27.46;58.71;101729.59;5065937;28;20040;-64
2022/08/24 08:42:29;;;;;;;21.48;16.35;;;;;;;27.82;58.78;101744.59;5066566;28;20432;-65
2022/08/24 08:45:06;;;;;;;19.83;12.82;;;;;;;28.20;58.55;101736.66;5066527;28;20036;-65
2022/08/24 08:47:47;;;;;;;16.40;10.45;;;;;;;28.48;54.70;101736.63;5066165;28;20491;-65
2022/08/24 08:50:25;;;;;;;14.23;10.75;;;;;;;28.84;54.43;101735.50;5065406;28;20076;-65
2022/08/24 08:53:25;;;;;;;14.27;9.68;;;;;;;29.16;57.86;101740.38;5063796;28;20032;-64
2022/08/24 08:56:01;;;;;;;13.53;10.20;;;;;;;29.25;53.58;101743.84;5066058;28;20032;-66
2022/08/24 08:59:00;;;;;;;11.30;8.98;;;;;;;29.31;53.16;101739.31;5065626;28;20711;-65
2022/08/24 09:02:13;;;;;;;10.88;7.20;;;;;;;29.67;54.13;101733.34;5066041;28;20097;-65
2022/08/24 09:05:03;;;;;;;11.32;9.20;;;;;;;29.88;50.31;101741.53;5066489;28;20037;-65
2022/08/24 09:07:40;;;;;;;10.38;8.48;;;;;;;29.92;51.64;101739.16;5077803;28;20056;-66
2022/08/24 09:10:50;;;;;;;13.43;10.15;;;;;;;29.71;48.97;101743.94;5045847;28;20132;-65
2022/08/24 09:13:53;;;;;;;11.80;7.95;;;;;;;29.90;52.78;101738.53;5069404;28;20109;-65
2022/08/24 09:17:00;;;;;;;7.68;4.90;;;;;;;30.08;51.30;101743.44;5067861;28;20501;-65
2022/08/24 09:19:38;;;;;;;7.63;4.00;;;;;;;30.10;49.91;101749.72;5054204;28;20044;-65
2022/08/24 09:22:19;;;;;;;10.48;4.05;;;;;;;30.42;50.18;101739.53;5064810;28;20484;-66
2022/08/24 09:24:53;;;;;;;7.28;4.22;;;;;;;30.38;45.84;101749.47;5066486;28;20028;-65
2022/08/24 09:27:55;;;;;;;6.35;3.50;;;;;;;30.34;48.92;101742.56;5064442;28;20438;-67
2022/08/24 09:30:26;;;;;;;5.10;2.92;;;;;;;30.17;47.88;101748.66;5069310;28;20467;-67
2022/08/24 09:33:14;;;;;;;7.75;3.78;;;;;;;29.79;48.16;101740.00;5087051;28;20035;-65
2022/08/24 09:35:58;;;;;;;8.88;4.20;;;;;;;29.62;50.84;101739.59;5087125;28;20051;-65
2022/08/24 09:38:23;;;;;;;8.55;4.40;;;;;;;29.74;49.28;101739.81;5071656;28;20043;-65
2022/08/24 09:41:26;;;;;;;10.45;6.90;;;;;;;29.83;49.19;101746.94;5066693;28;20033;-68
2022/08/24 09:44:12;;;;;;;9.05;6.00;;;;;;;30.05;50.86;101746.69;5063343;28;20468;-65
2022/08/24 09:46:56;;;;;;;11.60;6.72;;;;;;;30.32;49.53;101739.13;5066577;28;20049;-65
2022/08/24 09:49:37;;;;;;;9.30;6.03;;;;;;;30.63;47.61;101747.63;5066496;28;20494;-64
2022/08/24 09:52:27;;;;;;;7.43;5.35;;;;;;;30.91;48.53;101741.69;5065737;28;20396;-66
2022/08/24 09:55:25;;;;;;;8.02;5.50;;;;;;;30.59;45.64;101743.56;5065741;28;20142;-64
2022/08/24 09:58:17;;;;;;;9.45;5.00;;;;;;;30.94;47.36;101744.06;5064990;28;20271;-66
2022/08/24 10:00:47;;;;;;;;;;;;;;;31.02;48.67;101740.16;5065814;28;20498;-65
2022/08/24 10:03:47;;;;;;;8.32;4.30;;;;;;;30.98;46.75;101752.94;5065283;28;20412;-68
2022/08/24 10:06:24;;;;;;;4.45;3.78;;;;;;;31.47;47.29;101754.16;5056818;28;20060;-65
2022/08/24 10:09:27;;;;;;;7.47;5.25;;;;;;;31.67;45.05;101746.44;5064276;28;20652;-65
2022/08/24 10:12:34;;;;;;;4.50;3.95;;;;;;;31.80;44.78;101742.63;5065017;28;20129;-64
2022/08/24 10:15:05;;;;;;;6.55;3.70;;;;;;;32.23;43.20;101731.41;5064498;28;20651;-65
2022/08/24 10:17:54;;;;;;;10.57;3.75;;;;;;;32.41;41.07;101739.03;5064770;28;20044;-66
2022/08/24 10:20:24;;;;;;;5.55;3.25;;;;;;;32.23;39.76;101730.56;5066150;28;20048;-65
2022/08/24 10:23:27;;;;;;;8.13;3.60;;;;;;;31.83;43.63;101730.94;5063239;28;20043;-65
2022/08/24 10:26:01;;;;;;;3.42;3.13;;;;;;;31.64;42.20;101729.13;5065967;28;20035;-64
2022/08/24 10:28:36;;;;;;;6.20;3.20;;;;;;;31.61;43.34;101724.81;5064575;28;20106;-65
2022/08/24 10:31:18;;;;;;;8.00;3.13;;;;;;;31.59;41.18;101717.72;5065670;28;20430;-65
2022/08/24 10:34:02;;;;;;;;;;;;;;;31.72;41.79;101715.66;5066292;28;20483;-65
2022/08/24 10:37:21;;;;;;;4.75;3.30;;;;;;;31.49;43.82;101718.22;5064506;28;19942;-65
2022/08/24 10:40:11;;;;;;;5.50;3.17;;;;;;;30.98;43.82;101720.06;5025905;28;20049;-65
2022/08/24 10:46:00;;;;;;;5.85;3.05;;;;;;;30.36;45.81;101721.63;5065137;28;20040;-65
2022/08/24 10:48:29;;;;;;;5.05;3.20;;;;;;;30.19;45.21;101718.41;5045529;28;20041;-65
2022/08/24 10:51:30;;;;;;;6.20;3.30;;;;;;;29.99;47.07;101721.22;5045708;28;20484;-65
2022/08/24 10:53:57;;;;;;;4.53;2.60;;;;;;;29.80;46.54;101724.94;5062642;28;20090;-64
2022/08/24 10:56:38;;;;;;;4.55;3.30;;;;;;;30.09;47.96;101722.72;5082182;28;20035;-67
2022/08/24 10:59:15;;;;;;;5.55;3.42;;;;;;;30.62;45.87;101715.00;5070246;28;20025;-65
2022/08/24 11:01:59;;;;;;;6.82;3.22;;;;;;;31.15;44.58;101717.59;5076342;28;20044;-65
2022/08/24 11:04:28;;;;;;;5.05;3.30;;;;;;;31.32;41.69;101717.91;5085842;28;20044;-68
2022/08/24 11:07:17;;;;;;;7.65;4.05;;;;;;;31.63;41.57;101702.97;5085426;28;20062;-67
2022/08/24 11:09:51;;;;;;;11.10;3.67;;;;;;;31.74;39.18;101704.16;5065634;28;20546;-65
2022/08/24 11:12:39;;;;;;;6.00;3.10;;;;;;;31.92;41.69;101704.22;5065982;28;20202;-66
2022/08/24 11:15:16;;;;;;;4.53;2.75;;;;;;;32.22;42.37;101700.63;5055604;28;20095;-66
2022/08/24 11:17:55;;;;;;;3.80;2.95;;;;;;;32.63;40.71;101693.47;5084575;28;20100;-65
2022/08/24 11:20:28;;;;;;;3.90;2.63;;;;;;;32.79;39.97;101704.09;5085718;28;20043;-65
2022/08/24 11:23:06;;;;;;;4.60;2.60;;;;;;;33.12;41.53;101695.19;5069405;28;20048;-65
2022/08/24 11:25:34;;;;;;;5.82;2.45;;;;;;;33.16;40.19;101696.41;5065233;28;20048;-66
2022/08/24 11:28:10;;;;;;;5.57;2.38;;;;;;;33.19;41.61;101695.06;5063049;28;20742;-67
2022/08/24 11:30:40;;;;;;;4.20;2.47;;;;;;;33.27;41.88;101697.53;5064097;28;20112;-66
2022/08/24 11:33:24;;;;;;;5.13;2.17;;;;;;;33.42;41.41;101697.06;5064558;28;20047;-69
2022/08/24 11:35:50;;;;;;;7.75;2.30;;;;;;;33.45;38.10;101691.84;5045213;28;20120;-64
2022/08/24 11:38:19;;;;;;;4.60;2.47;;;;;;;33.13;36.76;101698.84;5049476;28;20502;-64
2022/08/24 11:41:01;;;;;;;5.80;2.20;;;;;;;33.02;40.07;101692.09;5065640;28;20040;-65
2022/08/24 11:44:06;;;;;;;6.50;2.40;;;;;;;33.11;39.80;101686.94;5062502;28;20670;-65